Time;durP1;ratioP1;P1;durP2;ratioP2;P2;SDS_P1;SDS_P2;PMS_P1;PMS_P2;Temp;Humidity;BMP_temperature;BMP_pressure;BME280_temperature;BME280_humidity;BME280_pressure;Samples;Min_cycle;Max_cycle;Signal;HPM_P1;HPM_P2
2024/01/11 00:03:31;;;;;;;;;;;;;;;-5.82;100.00;96492.69;10557239;27;2032;-71
2024/01/11 00:08:34;;;;;;;;;;;;;;;-5.70;100.00;96494.09;10553129;28;2017;-70
2024/01/11 00:13:37;;;;;;;;;;;;;;;-5.71;100.00;96492.44;10548650;27;2318;-71
2024/01/11 00:18:39;;;;;;;;;;;;;;;-6.01;100.00;96493.75;10543024;27;2091;-68
2024/01/11 00:23:43;;;;;;;;;;;;;;;-6.16;100.00;96497.91;10548322;27;2065;-63
2024/01/11 00:28:46;;;;;;;;;;;;;;;-6.13;100.00;96493.16;10553163;28;1982;-64
2024/01/11 00:33:49;;;;;;;;;;;;;;;-6.24;100.00;96496.03;10529449;27;2037;-64
2024/01/11 00:38:52;;;;;;;;;;;;;;;-6.27;100.00;96493.72;10563358;27;2015;-64
2024/01/11 00:43:55;;;;;;;;;;;;;;;-6.28;100.00;96494.69;10547939;28;1988;-64
2024/01/11 00:49:01;;;;;;;;;;;;;;;-6.24;100.00;96493.41;10525511;27;2072;-64
2024/01/11 00:54:06;;;;;;;;;;;;;;;-6.34;100.00;96501.34;10554630;27;2273;-64
2024/01/11 00:59:09;;;;;;;;;;;;;;;-6.36;100.00;96510.31;10550110;28;2313;-64
2024/01/11 01:04:13;;;;;;;;;;;;;;;-6.47;100.00;96511.38;10561038;28;2136;-65
2024/01/11 01:09:16;;;;;;;;;;;;;;;-6.45;100.00;96508.59;10553656;28;1923;-64
2024/01/11 01:14:18;;;;;;;;;;;;;;;-6.55;100.00;96517.38;10558884;28;1940;-64
2024/01/11 01:19:21;;;;;;;;;;;;;;;-6.49;100.00;96515.09;10549663;28;1972;-64
2024/01/11 01:24:24;;;;;;;;;;;;;;;-6.61;100.00;96523.19;10554881;27;3069;-65
2024/01/11 01:29:27;;;;;;;;;;;;;;;-6.82;100.00;96523.44;10561384;28;1919;-69
2024/01/11 01:34:29;;;;;;;;;;;;;;;-6.64;100.00;96515.63;10551835;28;2596;-63
2024/01/11 01:39:32;;;;;;;;;;;;;;;-6.54;100.00;96528.66;10555530;27;2216;-65
2024/01/11 01:44:40;;;;;;;;;;;;;;;-6.74;100.00;96532.34;10558109;28;2073;-65
2024/01/11 01:49:44;;;;;;;;;;;;;;;-6.71;100.00;96535.50;10553706;28;2112;-64
2024/01/11 01:54:46;;;;;;;;;;;;;;;-6.75;100.00;96539.38;10558904;27;1943;-63
2024/01/11 01:59:49;;;;;;;;;;;;;;;-6.92;100.00;96548.03;10547861;27;1985;-63
2024/01/11 02:04:52;;;;;;;;;;;;;;;-6.89;100.00;96542.50;10560263;28;2926;-65
2024/01/11 02:09:55;;;;;;;;;;;;;;;-6.83;100.00;96541.91;10553453;27;2155;-64
2024/01/11 02:14:58;;;;;;;;;;;;;;;-6.81;100.00;96542.56;10557076;27;2148;-65
2024/01/11 02:20:01;;;;;;;;;;;;;;;-6.66;100.00;96540.28;10559315;27;1964;-66
2024/01/11 02:25:04;;;;;;;;;;;;;;;-6.57;100.00;96532.38;10563085;27;1968;-64
2024/01/11 02:30:07;;;;;;;;;;;;;;;-6.59;100.00;96536.94;10555858;28;1935;-65
2024/01/11 02:35:10;;;;;;;;;;;;;;;-6.70;100.00;96529.28;10557520;27;1989;-63
2024/01/11 02:40:13;;;;;;;;;;;;;;;-6.62;100.00;96544.25;10548771;28;2104;-64
2024/01/11 02:45:16;;;;;;;;;;;;;;;-6.68;100.00;96535.22;10550923;27;1895;-63
2024/01/11 02:50:19;;;;;;;;;;;;;;;-6.73;100.00;96524.38;10553444;27;2069;-66
2024/01/11 02:55:22;;;;;;;;;;;;;;;-6.88;100.00;96508.34;10558781;28;1925;-65
2024/01/11 03:00:26;;;;;;;;;;;;;;;-6.78;100.00;96517.94;10552602;28;2667;-65
2024/01/11 03:05:29;;;;;;;;;;;;;;;-6.79;100.00;96514.50;10556439;28;1990;-64
2024/01/11 03:10:32;;;;;;;;;;;;;;;-6.72;100.00;96512.13;10551340;27;1931;-64
2024/01/11 03:15:34;;;;;;;;;;;;;;;-6.98;100.00;96506.78;10556548;27;2122;-64
2024/01/11 03:20:37;;;;;;;;;;;;;;;-6.74;100.00;96501.81;10559435;27;1930;-65
2024/01/11 03:25:40;;;;;;;;;;;;;;;-6.76;100.00;96501.13;10549375;27;2021;-65
2024/01/11 03:30:42;;;;;;;;;;;;;;;-6.94;100.00;96492.44;10558086;27;2010;-65
2024/01/11 03:35:46;;;;;;;;;;;;;;;-6.94;100.00;96485.41;10540423;28;2345;-65
2024/01/11 03:40:50;;;;;;;;;;;;;;;-6.73;100.00;96486.94;10557570;28;2112;-64
2024/01/11 03:45:53;;;;;;;;;;;;;;;-6.59;100.00;96482.00;10554263;27;1974;-64
2024/01/11 03:50:56;;;;;;;;;;;;;;;-6.53;100.00;96476.19;10554324;28;2065;-64
2024/01/11 03:55:59;;;;;;;;;;;;;;;-6.45;100.00;96472.00;10556473;27;2042;-64
2024/01/11 04:01:02;;;;;;;;;;;;;;;-6.48;100.00;96461.84;10555416;28;2406;-65
2024/01/11 04:06:06;;;;;;;;;;;;;;;-6.21;100.00;96459.09;10558988;28;2069;-67
2024/01/11 04:11:09;;;;;;;;;;;;;;;-5.97;100.00;96462.88;10557949;27;2033;-65
2024/01/11 04:16:11;;;;;;;;;;;;;;;-6.18;100.00;96468.44;10560955;28;1891;-64
2024/01/11 04:21:14;;;;;;;;;;;;;;;-6.27;100.00;96470.19;10535847;28;2022;-66
2024/01/11 04:26:17;;;;;;;;;;;;;;;-6.44;100.00;96471.00;10555341;28;2051;-64
2024/01/11 04:31:20;;;;;;;;;;;;;;;-6.41;100.00;96482.00;10547620;28;1883;-65
2024/01/11 04:36:23;;;;;;;;;;;;;;;-6.45;100.00;96490.31;10555162;28;1919;-65
2024/01/11 04:41:26;;;;;;;;;;;;;;;-6.69;100.00;96490.88;10553035;28;2048;-63
2024/01/11 04:46:29;;;;;;;;;;;;;;;-6.56;100.00;96486.94;10547634;28;2215;-65
2024/01/11 04:51:32;;;;;;;;;;;;;;;-6.69;100.00;96496.94;10554072;28;1966;-64
2024/01/11 04:56:35;;;;;;;;;;;;;;;-6.84;100.00;96485.38;10550960;28;1960;-66
2024/01/11 05:01:37;;;;;;;;;;;;;;;-6.84;100.00;96496.66;10565363;27;1981;-65
2024/01/11 05:06:41;;;;;;;;;;;;;;;-6.87;100.00;96496.09;10544689;28;2146;-65
2024/01/11 05:11:45;;;;;;;;;;;;;;;-6.76;100.00;96500.31;10557808;28;1984;-63
2024/01/11 05:16:48;;;;;;;;;;;;;;;-6.67;100.00;96491.59;10545105;28;2259;-63
2024/01/11 05:21:51;;;;;;;;;;;;;;;-6.61;100.00;96483.16;10560013;28;1976;-64
2024/01/11 05:26:54;;;;;;;;;;;;;;;-6.74;100.00;96483.50;10552274;28;2275;-65
2024/01/11 05:31:57;;;;;;;;;;;;;;;-7.04;100.00;96487.28;10554067;28;2244;-65
2024/01/11 05:37:00;;;;;;;;;;;;;;;-7.09;100.00;96495.56;10551484;28;1925;-64
2024/01/11 05:42:02;;;;;;;;;;;;;;;-7.04;100.00;96499.53;10556806;28;1977;-64
2024/01/11 05:47:06;;;;;;;;;;;;;;;-7.18;100.00;96506.91;10549709;28;2070;-63
2024/01/11 05:52:08;;;;;;;;;;;;;;;-7.11;100.00;96510.56;10545769;28;2064;-65
2024/01/11 05:57:11;;;;;;;;;;;;;;;-7.26;100.00;96516.41;10551578;28;2125;-66
2024/01/11 06:02:13;;;;;;;;;;;;;;;-7.18;100.00;96517.34;10548378;28;2064;-65
2024/01/11 06:07:16;;;;;;;;;;;;;;;-7.09;100.00;96505.19;10552516;27;2190;-63
2024/01/11 06:12:20;;;;;;;;;;;;;;;-6.95;100.00;96514.31;10564714;27;2325;-64
2024/01/11 06:17:23;;;;;;;;;;;;;;;-6.95;100.00;96520.38;10550765;27;2148;-66
2024/01/11 06:22:26;;;;;;;;;;;;;;;-6.82;100.00;96533.91;10548846;28;1998;-66
2024/01/11 06:27:29;;;;;;;;;;;;;;;-6.75;100.00;96544.59;10565256;28;2229;-67
2024/01/11 06:32:31;;;;;;;;;;;;;;;-6.94;100.00;96535.06;10562229;27;1960;-64
2024/01/11 06:37:34;;;;;;;;;;;;;;;-6.95;100.00;96550.91;10555532;27;1886;-63
2024/01/11 06:42:37;;;;;;;;;;;;;;;-7.05;100.00;96558.00;10560805;27;1944;-64
2024/01/11 06:47:40;;;;;;;;;;;;;;;-7.10;100.00;96566.25;10557758;28;1968;-68
2024/01/11 06:52:44;;;;;;;;;;;;;;;-7.10;100.00;96576.72;10562732;28;1860;-65
2024/01/11 06:57:46;;;;;;;;;;;;;;;-6.80;100.00;96567.78;10572810;27;2370;-65
2024/01/11 07:02:49;;;;;;;;;;;;;;;-6.69;100.00;96559.69;10552633;28;1914;-65
2024/01/11 07:07:52;;;;;;;;;;;;;;;-6.37;100.00;96569.66;10559663;28;2005;-65
2024/01/11 07:12:55;;;;;;;;;;;;;;;-6.48;100.00;96579.53;10559991;28;1900;-66
2024/01/11 07:17:57;;;;;;;;;;;;;;;-6.50;100.00;96568.38;10555964;27;2139;-68
2024/01/11 07:23:01;;;;;;;;;;;;;;;-6.18;100.00;96568.69;10562373;28;2052;-71
2024/01/11 07:28:04;;;;;;;;;;;;;;;-6.54;100.00;96563.47;10555532;28;2104;-72
2024/01/11 07:33:06;;;;;;;;;;;;;;;-6.37;100.00;96574.91;10557868;28;2053;-69
2024/01/11 07:38:11;;;;;;;;;;;;;;;-6.14;100.00;96570.03;10552935;28;2274;-70
2024/01/11 07:43:14;;;;;;;;;;;;;;;-6.12;100.00;96573.31;10544066;28;2659;-65
2024/01/11 07:48:16;;;;;;;;;;;;;;;-6.67;100.00;96590.94;10554713;28;1937;-64
2024/01/11 07:53:21;;;;;;;;;;;;;;;-6.40;100.00;96583.06;10556608;27;2002;-65
2024/01/11 07:58:24;;;;;;;;;;;;;;;-6.33;100.00;96580.66;10558692;28;1897;-65
2024/01/11 08:03:27;;;;;;;;;;;;;;;-6.01;100.00;96594.03;10559666;28;1985;-64
2024/01/11 08:08:31;;;;;;;;;;;;;;;-5.67;100.00;96576.75;10559737;28;1896;-66
2024/01/11 08:13:35;;;;;;;;;;;;;;;-5.39;100.00;96573.03;10553502;28;2111;-66
2024/01/11 08:18:38;;;;;;;;;;;;;;;-4.93;100.00;96576.19;10557963;28;2045;-65
2024/01/11 08:23:45;;;;;;;;;;;;;;;-4.63;100.00;96587.97;10554642;28;1940;-64
2024/01/11 08:28:49;;;;;;;;;;;;;;;-4.35;100.00;96593.78;10552471;28;1966;-65
2024/01/11 08:33:52;;;;;;;;;;;;;;;-4.54;100.00;96581.75;10553385;28;1883;-65
2024/01/11 08:38:55;;;;;;;;;;;;;;;-4.55;100.00;96593.22;10547475;28;2357;-65
2024/01/11 08:43:57;;;;;;;;;;;;;;;-4.70;100.00;96607.94;10554062;27;2168;-66
2024/01/11 08:49:01;;;;;;;;;;;;;;;-5.14;100.00;96636.06;10556785;28;1848;-65
2024/01/11 08:54:07;;;;;;;;;;;;;;;-5.28;100.00;96634.81;10553376;27;2088;-64
2024/01/11 08:59:11;;;;;;;;;;;;;;;-5.21;100.00;96644.56;10554062;28;2006;-65
2024/01/11 09:04:14;;;;;;;;;;;;;;;-5.52;100.00;96654.66;10550816;28;2465;-65
2024/01/11 09:09:16;;;;;;;;;;;;;;;-5.59;100.00;96666.72;10549738;28;1887;-65
2024/01/11 09:14:21;;;;;;;;;;;;;;;-5.79;100.00;96668.69;10551965;28;1994;-64
2024/01/11 09:19:25;;;;;;;;;;;;;;;-6.12;100.00;96657.09;10559576;28;2010;-66
2024/01/11 09:24:27;;;;;;;;;;;;;;;-5.91;100.00;96663.84;10552858;28;2206;-63
2024/01/11 09:29:36;;;;;;;;;;;;;;;-6.49;100.00;96667.63;10553851;28;2045;-64
2024/01/11 09:34:38;;;;;;;;;;;;;;;-6.38;100.00;96666.63;10557637;28;2697;-65
2024/01/11 09:39:42;;;;;;;;;;;;;;;-6.58;100.00;96671.94;10550696;28;2206;-65
2024/01/11 09:44:48;;;;;;;;;;;;;;;-6.17;100.00;96659.34;10560103;28;2045;-67
2024/01/11 09:49:52;;;;;;;;;;;;;;;-5.88;100.00;96664.31;10553797;28;2001;-65
2024/01/11 09:54:54;;;;;;;;;;;;;;;-5.55;100.00;96649.69;10561253;28;1996;-66
2024/01/11 09:59:58;;;;;;;;;;;;;;;-4.87;100.00;96633.28;10560243;28;2191;-65
2024/01/11 10:05:01;;;;;;;;;;;;;;;-4.53;100.00;96620.13;10554682;28;2115;-65
2024/01/11 10:10:05;;;;;;;;;;;;;;;-3.93;100.00;96629.63;10556976;28;2144;-64
2024/01/11 10:15:09;;;;;;;;;;;;;;;-3.39;100.00;96614.19;10558159;28;1956;-65
2024/01/11 10:20:13;;;;;;;;;;;;;;;-4.02;100.00;96602.53;10551549;28;2017;-64
2024/01/11 10:25:17;;;;;;;;;;;;;;;-3.78;100.00;96588.59;10555260;28;2072;-66
2024/01/11 10:30:22;;;;;;;;;;;;;;;-3.96;100.00;96607.13;10559930;27;2425;-66
2024/01/11 10:35:25;;;;;;;;;;;;;;;-4.39;100.00;96601.16;10556017;28;1875;-70
2024/01/11 10:40:28;;;;;;;;;;;;;;;-4.13;100.00;96595.81;10554872;28;1990;-65
2024/01/11 10:45:31;;;;;;;;;;;;;;;-3.63;100.00;96570.34;10563279;28;1913;-67
2024/01/11 10:50:34;;;;;;;;;;;;;;;-4.27;100.00;96585.91;10559450;27;2029;-65
2024/01/11 10:55:37;;;;;;;;;;;;;;;-4.20;100.00;96599.22;10554136;27;2296;-64
2024/01/11 11:00:40;;;;;;;;;;;;;;;-4.15;100.00;96597.75;10541902;28;2073;-65
2024/01/11 11:05:42;;;;;;;;;;;;;;;-3.38;100.00;96577.22;10563141;27;2130;-65
2024/01/11 11:10:45;;;;;;;;;;;;;;;-2.66;100.00;96563.22;10566558;27;1912;-64
2024/01/11 11:15:48;;;;;;;;;;;;;;;-2.47;100.00;96568.03;10556592;28;2051;-64
2024/01/11 11:20:51;;;;;;;;;;;;;;;-2.25;100.00;96563.78;10556093;28;1962;-65
2024/01/11 11:25:53;;;;;;;;;;;;;;;-2.92;100.00;96582.72;10551768;28;2293;-64
2024/01/11 11:30:57;;;;;;;;;;;;;;;-3.88;100.00;96596.66;10550789;28;2029;-66
2024/01/11 11:36:02;;;;;;;;;;;;;;;-3.80;100.00;96593.19;10553154;28;1994;-65
2024/01/11 11:41:05;;;;;;;;;;;;;;;-3.59;100.00;96582.19;10553836;28;1902;-65
2024/01/11 11:46:08;;;;;;;;;;;;;;;-3.55;100.00;96579.06;10555164;28;2052;-65
2024/01/11 11:51:11;;;;;;;;;;;;;;;-3.53;100.00;96577.06;10550730;28;1920;-67
2024/01/11 11:56:16;;;;;;;;;;;;;;;-3.21;100.00;96564.88;10544066;27;2197;-64
2024/01/11 12:01:19;;;;;;;;;;;;;;;-3.05;100.00;96577.16;10552441;28;1962;-64
2024/01/11 12:06:24;;;;;;;;;;;;;;;-2.97;100.00;96568.44;10536432;28;2020;-63
2024/01/11 12:11:28;;;;;;;;;;;;;;;-2.88;100.00;96570.03;10553695;28;2007;-64
2024/01/11 12:16:31;;;;;;;;;;;;;;;-2.61;100.00;96571.38;10568321;27;2139;-64
2024/01/11 12:21:34;;;;;;;;;;;;;;;-2.48;100.00;96540.09;10552530;27;2542;-63
2024/01/11 12:26:37;;;;;;;;;;;;;;;-2.39;100.00;96533.75;10553254;28;2135;-65
2024/01/11 12:31:41;;;;;;;;;;;;;;;-2.36;100.00;96545.75;10548185;27;1971;-64
2024/01/11 12:36:44;;;;;;;;;;;;;;;-2.92;100.00;96526.66;10546397;28;2007;-64
2024/01/11 12:41:46;;;;;;;;;;;;;;;-3.09;100.00;96544.28;10553517;27;1985;-65
2024/01/11 12:46:52;;;;;;;;;;;;;;;-3.15;100.00;96569.44;10545953;28;1994;-64
2024/01/11 12:51:56;;;;;;;;;;;;;;;-2.90;100.00;96561.50;10553154;28;2058;-64
2024/01/11 12:56:59;;;;;;;;;;;;;;;-2.58;100.00;96548.19;10553313;27;2306;-64
2024/01/11 13:02:02;;;;;;;;;;;;;;;-2.50;100.00;96531.53;10554969;28;1856;-64
2024/01/11 13:07:06;;;;;;;;;;;;;;;-2.82;100.00;96527.25;10554155;28;2105;-63
2024/01/11 13:12:09;;;;;;;;;;;;;;;-2.44;100.00;96530.81;10555715;28;1883;-65
2024/01/11 13:17:11;;;;;;;;;;;;;;;-2.49;100.00;96528.69;10553235;28;2408;-65
2024/01/11 13:22:14;;;;;;;;;;;;;;;-2.27;100.00;96532.38;10554176;28;1941;-65
2024/01/11 13:27:17;;;;;;;;;;;;;;;-2.67;100.00;96529.97;10554523;28;2050;-65
2024/01/11 13:32:22;;;;;;;;;;;;;;;-3.19;100.00;96539.22;10548552;28;1911;-66
2024/01/11 13:37:24;;;;;;;;;;;;;;;-2.84;100.00;96548.47;10551912;28;2062;-63
2024/01/11 13:42:29;;;;;;;;;;;;;;;-2.72;100.00;96554.19;10553221;28;1979;-64
2024/01/11 13:47:31;;;;;;;;;;;;;;;-2.58;100.00;96565.78;10551514;28;1989;-63
2024/01/11 13:52:34;;;;;;;;;;;;;;;-3.46;100.00;96574.59;10552355;28;1909;-66
2024/01/11 13:57:38;;;;;;;;;;;;;;;-3.20;100.00;96578.84;10551675;28;2293;-67
2024/01/11 14:02:40;;;;;;;;;;;;;;;-3.68;100.00;96577.94;10543046;28;2057;-64
2024/01/11 14:07:43;;;;;;;;;;;;;;;-3.63;100.00;96591.38;10552894;28;1988;-64
2024/01/11 14:12:47;;;;;;;;;;;;;;;-3.65;100.00;96588.09;10553460;28;1904;-64
2024/01/11 14:17:50;;;;;;;;;;;;;;;-3.80;100.00;96577.44;10550987;28;2079;-69
2024/01/11 14:22:53;;;;;;;;;;;;;;;-3.76;100.00;96575.28;10538352;28;1971;-66
2024/01/11 14:27:56;;;;;;;;;;;;;;;-3.58;100.00;96583.81;10554326;28;2239;-71
2024/01/11 14:32:58;;;;;;;;;;;;;;;-3.91;100.00;96588.25;10558049;28;2240;-65
2024/01/11 14:38:01;;;;;;;;;;;;;;;-4.01;100.00;96591.03;10558249;28;1928;-63
2024/01/11 14:43:04;;;;;;;;;;;;;;;-3.88;100.00;96585.28;10562639;28;2224;-66
2024/01/11 14:48:07;;;;;;;;;;;;;;;-3.92;100.00;96589.25;10557169;28;2308;-65
2024/01/11 14:53:09;;;;;;;;;;;;;;;-4.26;100.00;96597.22;10559965;28;1934;-63
2024/01/11 14:58:13;;;;;;;;;;;;;;;-4.09;100.00;96602.34;10558626;28;1855;-63
2024/01/11 15:03:15;;;;;;;;;;;;;;;-3.94;100.00;96607.00;10560988;28;2276;-65
2024/01/11 15:08:20;;;;;;;;;;;;;;;-4.13;100.00;96623.88;10558825;27;1933;-64
2024/01/11 15:13:23;;;;;;;;;;;;;;;-4.55;100.00;96601.09;10554335;28;2001;-64
2024/01/11 15:18:25;;;;;;;;;;;;;;;-4.41;100.00;96595.22;10558851;28;1958;-67
2024/01/11 15:23:28;;;;;;;;;;;;;;;-4.29;100.00;96601.00;10552556;27;2065;-65
2024/01/11 15:28:31;;;;;;;;;;;;;;;-4.25;100.00;96614.66;10557176;27;2127;-65
2024/01/11 15:33:34;;;;;;;;;;;;;;;-4.30;100.00;96609.03;10549894;27;2120;-63
2024/01/11 15:38:37;;;;;;;;;;;;;;;-4.67;100.00;96628.59;10530156;28;2096;-64
2024/01/11 15:43:40;;;;;;;;;;;;;;;-4.91;100.00;96626.69;10554672;28;2766;-63
2024/01/11 15:48:44;;;;;;;;;;;;;;;-4.79;100.00;96635.91;10553882;28;1990;-62
2024/01/11 15:53:47;;;;;;;;;;;;;;;-4.87;100.00;96663.91;10549525;27;2120;-66
2024/01/11 15:58:51;;;;;;;;;;;;;;;-4.72;100.00;96664.97;10552925;27;2126;-68
2024/01/11 16:03:53;;;;;;;;;;;;;;;-4.74;100.00;96648.56;10556145;28;2080;-68
2024/01/11 16:08:56;;;;;;;;;;;;;;;-4.97;100.00;96667.47;10533318;28;2019;-65
2024/01/11 16:13:59;;;;;;;;;;;;;;;-4.82;100.00;96677.41;10547568;28;2132;-64
2024/01/11 16:19:03;;;;;;;;;;;;;;;-4.69;100.00;96673.38;10555501;28;1883;-65
2024/01/11 16:24:07;;;;;;;;;;;;;;;-4.86;100.00;96697.03;10551399;28;2107;-63
2024/01/11 16:29:12;;;;;;;;;;;;;;;-4.92;100.00;96701.09;10550721;28;1930;-66
2024/01/11 16:34:15;;;;;;;;;;;;;;;-5.12;100.00;96691.78;10554848;28;1984;-64
2024/01/11 16:39:17;;;;;;;;;;;;;;;-5.11;100.00;96668.03;10547495;27;2132;-64
2024/01/11 16:44:20;;;;;;;;;;;;;;;-4.81;100.00;96656.25;10555217;28;1974;-66
2024/01/11 16:49:23;;;;;;;;;;;;;;;-4.74;100.00;96659.88;10558325;27;2155;-66
2024/01/11 16:54:28;;;;;;;;;;;;;;;-4.63;100.00;96664.03;10554404;28;1960;-68
2024/01/11 16:59:30;;;;;;;;;;;;;;;-4.57;100.00;96659.97;10550472;28;1952;-65
2024/01/11 17:04:33;;;;;;;;;;;;;;;-4.68;100.00;96675.00;10552994;28;2136;-65
2024/01/11 17:09:37;;;;;;;;;;;;;;;-4.61;100.00;96683.06;10549803;28;2041;-65
2024/01/11 17:14:40;;;;;;;;;;;;;;;-4.57;100.00;96683.59;10544625;28;2254;-69
2024/01/11 17:19:42;;;;;;;;;;;;;;;-4.59;100.00;96690.78;10547620;28;2056;-65
2024/01/11 17:24:45;;;;;;;;;;;;;;;-4.79;100.00;96693.63;10551429;28;2053;-66
2024/01/11 17:29:48;;;;;;;;;;;;;;;-4.84;100.00;96700.31;10544496;28;1975;-64
2024/01/11 17:34:52;;;;;;;;;;;;;;;-4.97;100.00;96712.03;10546310;28;2072;-66
2024/01/11 17:39:56;;;;;;;;;;;;;;;-4.87;100.00;96705.88;10545826;28;1942;-66
2024/01/11 17:44:58;;;;;;;;;;;;;;;-4.91;100.00;96705.34;10547999;28;1986;-65
2024/01/11 17:50:01;;;;;;;;;;;;;;;-4.75;100.00;96705.47;10545785;28;2109;-64
2024/01/11 17:55:04;;;;;;;;;;;;;;;-4.66;100.00;96685.34;10544607;28;2731;-65
2024/01/11 18:00:06;;;;;;;;;;;;;;;-4.67;100.00;96689.75;10545935;28;1945;-67
2024/01/11 18:05:09;;;;;;;;;;;;;;;-4.72;100.00;96699.06;10547481;28;2052;-66
2024/01/11 18:10:15;;;;;;;;;;;;;;;-4.59;100.00;96691.59;10550942;28;2065;-67
2024/01/11 18:15:18;;;;;;;;;;;;;;;-4.56;100.00;96672.09;10548022;28;2065;-66
2024/01/11 18:20:28;;;;;;;;;;;;;;;-4.51;100.00;96681.16;10554316;27;2288;-66
2024/01/11 18:25:31;;;;;;;;;;;;;;;-4.51;100.00;96689.03;10550398;27;2069;-65
2024/01/11 18:30:36;;;;;;;;;;;;;;;-4.42;100.00;96690.69;10543227;27;2870;-65
2024/01/11 18:35:39;;;;;;;;;;;;;;;-4.49;100.00;96705.44;10552862;28;2016;-67
2024/01/11 18:40:42;;;;;;;;;;;;;;;-4.60;100.00;96724.06;10565405;28;1830;-65
2024/01/11 18:45:45;;;;;;;;;;;;;;;-4.66;100.00;96720.25;10559502;27;1971;-66
2024/01/11 18:50:50;;;;;;;;;;;;;;;-4.76;100.00;96718.75;10566827;27;1476;-67
2024/01/11 18:55:56;;;;;;;;;;;;;;;-4.94;100.00;96717.00;10570037;27;2000;-67
2024/01/11 19:00:59;;;;;;;;;;;;;;;-4.74;100.00;96711.53;10566492;27;1881;-65
2024/01/11 19:06:02;;;;;;;;;;;;;;;-4.90;100.00;96715.72;10550610;27;1957;-65
2024/01/11 19:11:06;;;;;;;;;;;;;;;-4.82;100.00;96720.19;10548389;27;2429;-66
2024/01/11 19:16:09;;;;;;;;;;;;;;;-4.87;100.00;96732.94;10567808;28;1616;-66
2024/01/11 19:21:13;;;;;;;;;;;;;;;-4.88;100.00;96733.91;10567906;27;1475;-68
2024/01/11 19:26:16;;;;;;;;;;;;;;;-5.11;100.00;96736.19;10563298;27;1980;-66
2024/01/11 19:31:19;;;;;;;;;;;;;;;-5.14;100.00;96747.00;10560178;28;1480;-69
2024/01/11 19:36:24;;;;;;;;;;;;;;;-5.14;100.00;96743.56;10565213;27;1478;-66
2024/01/11 19:41:31;;;;;;;;;;;;;;;-5.05;100.00;96743.44;10544557;27;1583;-69
2024/01/11 19:46:36;;;;;;;;;;;;;;;-4.92;100.00;96735.19;10566658;28;1963;-67
2024/01/11 19:51:39;;;;;;;;;;;;;;;-4.76;100.00;96737.09;10565088;27;1462;-68
2024/01/11 19:56:43;;;;;;;;;;;;;;;-4.68;100.00;96735.34;10564813;28;1464;-66
2024/01/11 20:01:46;;;;;;;;;;;;;;;-4.53;100.00;96714.59;10567123;27;1792;-66
2024/01/11 20:06:49;;;;;;;;;;;;;;;-4.56;100.00;96720.16;10561926;27;2325;-65
2024/01/11 20:11:52;;;;;;;;;;;;;;;-4.64;100.00;96717.50;10562872;27;1591;-65
2024/01/11 20:16:55;;;;;;;;;;;;;;;-4.68;100.00;96716.16;10554620;28;1502;-70
2024/01/11 20:21:57;;;;;;;;;;;;;;;-4.57;100.00;96723.78;10543175;28;1878;-67
2024/01/11 20:27:03;;;;;;;;;;;;;;;-4.50;100.00;96723.97;10566746;27;1909;-69
2024/01/11 20:32:06;;;;;;;;;;;;;;;-4.54;100.00;96728.69;10564825;27;1794;-66
2024/01/11 20:37:09;;;;;;;;;;;;;;;-4.64;100.00;96734.06;10565972;28;1490;-66
2024/01/11 20:42:11;;;;;;;;;;;;;;;-4.68;100.00;96716.97;10558122;28;1739;-67
2024/01/11 20:47:14;;;;;;;;;;;;;;;-4.69;100.00;96709.28;10546216;27;2455;-66
2024/01/11 20:52:18;;;;;;;;;;;;;;;-4.73;100.00;96707.94;10563972;28;1575;-71
2024/01/11 20:57:20;;;;;;;;;;;;;;;-4.80;100.00;96717.41;10562211;27;1594;-75
2024/01/11 21:02:23;;;;;;;;;;;;;;;-4.82;100.00;96735.91;10558945;27;1932;-76
2024/01/11 21:07:26;;;;;;;;;;;;;;;-4.92;100.00;96733.38;10564317;27;1913;-76
2024/01/11 21:12:30;;;;;;;;;;;;;;;-4.91;100.00;96748.13;10562512;28;1476;-66
2024/01/11 21:17:33;;;;;;;;;;;;;;;-4.90;100.00;96775.19;10558175;28;1696;-64
2024/01/11 21:22:38;;;;;;;;;;;;;;;-4.79;100.00;96761.00;10555796;28;1514;-66
2024/01/11 21:27:40;;;;;;;;;;;;;;;-4.91;100.00;96753.38;10558783;28;2246;-64
2024/01/11 21:32:44;;;;;;;;;;;;;;;-4.90;100.00;96755.06;10559246;28;1548;-64
2024/01/11 21:37:47;;;;;;;;;;;;;;;-4.92;100.00;96756.16;10577539;28;1499;-66
2024/01/11 21:42:52;;;;;;;;;;;;;;;-4.95;100.00;96762.53;10573657;27;1937;-66
2024/01/11 21:47:55;;;;;;;;;;;;;;;-4.94;100.00;96766.81;10568599;27;1925;-68
2024/01/11 21:52:57;;;;;;;;;;;;;;;-4.86;100.00;96771.28;10565492;28;1551;-66
2024/01/11 21:58:00;;;;;;;;;;;;;;;-4.91;100.00;96779.59;10563297;27;1502;-66
2024/01/11 22:03:05;;;;;;;;;;;;;;;-5.13;100.00;96784.53;10563352;28;1993;-65
2024/01/11 22:08:09;;;;;;;;;;;;;;;-4.99;100.00;96779.56;10561589;27;1980;-65
2024/01/11 22:18:28;;;;;;;;;;;;;;;-4.68;100.00;96768.63;10556235;27;2732;-65
2024/01/11 22:23:33;;;;;;;;;;;;;;;-4.57;100.00;96755.25;10560796;28;1988;-66
2024/01/11 22:28:35;;;;;;;;;;;;;;;-4.49;100.00;96744.78;10559491;28;1972;-66
2024/01/11 22:33:38;;;;;;;;;;;;;;;-4.50;100.00;96735.28;10552210;27;2025;-66
2024/01/11 22:38:41;;;;;;;;;;;;;;;-4.50;100.00;96732.66;10560800;28;1955;-65
2024/01/11 22:43:45;;;;;;;;;;;;;;;-4.57;100.00;96736.88;10532176;28;2069;-64
2024/01/11 22:48:48;;;;;;;;;;;;;;;-4.50;100.00;96723.97;10550791;28;2001;-64
2024/01/11 22:53:53;;;;;;;;;;;;;;;-4.35;100.00;96725.00;10557075;28;1901;-65
2024/01/11 22:58:56;;;;;;;;;;;;;;;-4.38;100.00;96714.84;10552737;28;2122;-65
2024/01/11 23:03:58;;;;;;;;;;;;;;;-4.35;100.00;96722.38;10535852;28;1984;-65
2024/01/11 23:09:04;;;;;;;;;;;;;;;-4.58;100.00;96700.28;10556175;28;2848;-65
2024/01/11 23:14:07;;;;;;;;;;;;;;;-4.60;100.00;96710.94;10554010;28;2030;-66
2024/01/11 23:19:10;;;;;;;;;;;;;;;-4.72;100.00;96701.69;10550667;28;1904;-64
2024/01/11 23:24:13;;;;;;;;;;;;;;;-4.69;100.00;96710.09;10536588;28;2041;-65
2024/01/11 23:29:17;;;;;;;;;;;;;;;-4.69;100.00;96709.28;10556128;28;1908;-66
2024/01/11 23:34:21;;;;;;;;;;;;;;;-4.72;100.00;96712.19;10502650;28;1324042;-64
2024/01/11 23:39:24;;;;;;;;;;;;;;;-4.77;100.00;96711.81;10544490;27;2197;-65
2024/01/11 23:44:26;;;;;;;;;;;;;;;-4.86;100.00;96695.22;10552673;27;1926;-67
2024/01/11 23:49:32;;;;;;;;;;;;;;;-4.98;100.00;96697.28;10552503;28;2615;-64
2024/01/11 23:54:35;;;;;;;;;;;;;;;-5.12;100.00;96716.19;10552603;28;2002;-66
2024/01/11 23:59:38;;;;;;;;;;;;;;;-5.19;100.00;96723.03;10556533;27;2173;-65
